M/T Goviken — 9HA2718 — position and weather

sailwx.info

Track history (hours):
 
Tides and Currents Weather Stations Pressure Air Temp Water Temp Dewpoint Dewpoint Depression Visibility Wind Speed Wind Dir Waves Ship Positions

M/T Goviken

Last reported at 2015-May-27 06:33 UTC. Time now 2015-May-27 18:01 UTC.
Position N 59°16' E 005°30'.

Length 88 m; draft 5.4 m.

Type: Ship (hazmat cat A). MMSI: 215389000.

Date/timePositionNaut miles runAvg speedWind from/ knotsBaromVisibWave heightAir tempDewpointWater temp
2015-May-27 06:33N 59°16' E 005°30'2 0.2
2015-May-26 17:27N 59°14' E 005°31'5 5.2
2015-May-26 16:34N 59°09' E 005°33'7 6.6
2015-May-26 15:34N 59°05' E 005°23'7 7.3
2015-May-26 14:34N 59°00' E 005°12'8 7.8
2015-May-26 13:34N 58°53' E 005°07'8 7.5
2015-May-26 12:34N 58°46' E 005°06'268 8.5
2015-May-25 05:10N 54°18' E 005°12'6 9.0
2015-May-25 04:32N 54°12' E 005°10'9 8.8
2015-May-25 03:33N 54°04' E 005°06'9 8.7
2015-May-25 02:33N 53°56' E 005°02'9 8.5
2015-May-25 01:29N 53°47' E 004°56'8 8.4
2015-May-25 00:31N 53°40' E 004°52'9 8.9
2015-May-24 23:34N 53°32' E 004°46'10 9.6
2015-May-24 22:33N 53°23' E 004°40'1310.2
2015-May-24 21:19N 53°11' E 004°32'911.4
2015-May-24 20:30N 53°03' E 004°25'1111.6
2015-May-24 19:34N 52°53' E 004°16'1111.2
2015-May-24 18:33N 52°44' E 004°06'1110.9
2015-May-24 17:33N 52°36' E 003°54'1010.3
2015-May-24 16:33N 52°29' E 003°42'9 9.5
2015-May-24 15:34N 52°20' E 003°37'9 9.5
2015-May-24 14:34N 52°11' E 003°43'2 1.9
2015-May-24 13:32N 52°09' E 003°44'0 0.0
2015-May-24 12:26N 52°09' E 003°44'0 0.0
2015-May-24 11:32N 52°09' E 003°44'0 0.1
2015-May-24 10:32N 52°09' E 003°44'0 0.0
2015-May-24 09:26N 52°09' E 003°44'0 0.0
2015-May-24 08:29N 52°09' E 003°44'0 0.0
2015-May-24 07:32N 52°09' E 003°44'0 0.0
2015-May-24 06:29N 52°09' E 003°44'0 0.0
2015-May-24 05:17N 52°09' E 003°44'0 0.1
2015-May-24 04:32N 52°09' E 003°44'0 0.1
2015-May-24 03:32N 52°09' E 003°44'0 0.0
2015-May-24 02:29N 52°09' E 003°44'0 0.0
2015-May-24 01:29N 52°09' E 003°44'0 0.0
2015-May-24 00:29N 52°09' E 003°44'0 0.0
2015-May-23 23:32N 52°09' E 003°44'0 0.0
2015-May-23 22:29N 52°09' E 003°44'0 0.0
2015-May-23 21:32N 52°09' E 003°44'0 0.0
2015-May-23 20:32N 52°09' E 003°44'0 0.1
2015-May-23 19:29N 52°09' E 003°44'0 0.0
2015-May-23 18:32N 52°09' E 003°44'0 0.1
2015-May-23 17:23N 52°09' E 003°44'0 0.1
2015-May-23 16:20N 52°09' E 003°44'0 0.0
2015-May-23 15:20N 52°09' E 003°44'0 0.0
2015-May-23 14:26N 52°09' E 003°44'0 0.0
2015-May-23 13:23N 52°09' E 003°44'0 0.0
2015-May-23 12:32N 52°09' E 003°44'0 0.0
2015-May-23 11:29N 52°09' E 003°44'0 0.0
2015-May-23 10:23N 52°09' E 003°44'0 0.0
2015-May-23 09:32N 52°09' E 003°44'0 0.0
2015-May-23 08:11N 52°09' E 003°44'0 0.1
2015-May-23 07:11N 52°09' E 003°44'0 0.1
2015-May-23 06:32N 52°09' E 003°44'0 0.1
2015-May-23 04:33N 52°09' E 003°44'1010.1
2015-May-23 03:33N 52°02' E 003°56'1111.2
2015-May-23 02:33N 51°56' E 004°12'3 3.3
2015-May-23 01:33N 51°53' E 004°14'1 0.8
2015-May-23 00:33N 51°53' E 004°15'0 0.0
2015-May-22 23:33N 51°53' E 004°15'0 0.0
2015-May-22 22:33N 51°53' E 004°15'0 0.0
2015-May-22 21:33N 51°53' E 004°15'0 0.0
2015-May-22 20:33N 51°53' E 004°15'0 0.0
2015-May-22 19:33N 51°53' E 004°15'0 0.0
2015-May-22 18:33N 51°53' E 004°15'0 0.0
2015-May-22 17:33N 51°53' E 004°15'0 0.0
2015-May-22 16:18N 51°53' E 004°15'0 0.0
2015-May-22 15:33N 51°53' E 004°15'0 0.0
2015-May-22 14:33N 51°53' E 004°15'0 0.0
2015-May-22 13:33N 51°53' E 004°15'0 0.0
2015-May-22 12:33N 51°53' E 004°15'0 0.0
2015-May-22 11:30N 51°53' E 004°15'0 0.0
2015-May-22 10:33N 51°53' E 004°15'0 0.0
2015-May-22 09:33N 51°53' E 004°15'0 0.0
2015-May-22 08:33N 51°53' E 004°15'0 0.0
2015-May-22 07:33N 51°53' E 004°15'0 0.0
2015-May-22 06:21N 51°53' E 004°15'0 0.0
2015-May-22 05:33N 51°53' E 004°15'0 0.0
2015-May-22 04:33N 51°53' E 004°15'0 0.0
2015-May-22 03:33N 51°53' E 004°15'0 0.0
2015-May-22 02:21N 51°53' E 004°15'0 0.0
2015-May-22 01:12N 51°53' E 004°15'0 0.0
2015-May-22 00:33N 51°53' E 004°15'0 0.0
2015-May-21 23:33N 51°53' E 004°15'0 0.0
2015-May-21 22:33N 51°53' E 004°15'0 0.0
2015-May-21 21:30N 51°53' E 004°15'0 0.0
2015-May-21 20:33N 51°53' E 004°15'0 0.0
2015-May-21 19:27N 51°53' E 004°15'0 0.0
2015-May-21 18:24N 51°53' E 004°15'0 0.0
2015-May-21 17:27N 51°53' E 004°15'0 0.0
2015-May-21 16:21N 51°53' E 004°15'0 0.0
2015-May-21 15:30N 51°53' E 004°15'0 0.0
2015-May-21 14:27N 51°53' E 004°15'0 0.0
2015-May-21 13:33N 51°53' E 004°15'0 0.0
2015-May-21 12:33N 51°53' E 004°15'0 0.0
2015-May-21 11:33N 51°53' E 004°15'0 0.0
2015-May-21 10:18N 51°53' E 004°15'0 0.0
2015-May-21 09:33N 51°53' E 004°15'0 0.0
2015-May-21 07:33N 51°53' E 004°15'0 0.0
2015-May-21 06:30N 51°53' E 004°15'1 1.2
2015-May-21 05:34N 51°53' E 004°14'4 4.4
2015-May-21 04:34N 51°57' E 004°09'9 8.7
2015-May-21 03:33N 51°59' E 003°56'4 4.4
2015-May-21 02:34N 52°02' E 003°50'8 7.9
2015-May-21 01:31N 52°08' E 003°41'0 0.1
2015-May-21 00:28N 52°08' E 003°41'0 0.0
2015-May-20 23:31N 52°08' E 003°41'0 0.0
2015-May-20 22:16N 52°08' E 003°41'0 0.0
2015-May-20 21:22N 52°08' E 003°41'0 0.1
2015-May-20 20:31N 52°08' E 003°41'0 0.0
2015-May-20 13:13N 52°08' E 003°41'0 0.0
2015-May-20 10:28N 52°08' E 003°41'0 0.0
2015-May-20 09:28N 52°08' E 003°41'0 0.1
2015-May-20 07:22N 52°08' E 003°41'0 0.0
2015-May-20 05:28N 52°08' E 003°41'0 0.0
2015-May-19 22:31N 52°08' E 003°41'0 0.0
2015-May-19 21:04N 52°08' E 003°41'0 0.0
2015-May-19 11:28N 52°08' E 003°41'0 0.2
2015-May-19 10:25N 52°08' E 003°41'0 0.2
2015-May-19 08:33N 52°08' E 003°41'7 6.8
2015-May-19 07:33N 52°14' E 003°46'9 9.0
2015-May-19 06:34N 52°23' E 003°49'27 8.1
2015-May-19 03:15N 52°49' E 003°57'44 9.2
2015-May-18 22:29N 53°27' E 004°34'9 8.9
2015-May-18 21:28N 53°35' E 004°39'23 7.3
2015-May-18 18:19N 53°57' E 004°50'5 5.8
2015-May-18 17:27N 54°02' E 004°55'6 6.7
2015-May-18 16:32N 54°07' E 004°59'9 9.0
2015-May-18 15:32N 54°16' E 005°02'27010.4
2015-May-17 13:32N 58°46' E 005°06'1010.4
2015-May-17 12:34N 58°56' E 005°08'1010.0
2015-May-17 11:33N 59°05' E 005°18'10 9.6
2015-May-17 10:33N 59°12' E 005°31'  
Track history (hours):
 
Tides and Currents Weather Stations Pressure Air Temp Water Temp Dewpoint Dewpoint Depression Visibility Wind Speed Wind Dir Waves Ship Positions

M/T Goviken

Last reported at 2015-May-27 06:33 UTC. Time now 2015-May-27 18:01 UTC.
Position N 59°16' E 005°30'.

Length 88 m; draft 5.4 m.

Type: Ship (hazmat cat A). MMSI: 215389000.

Date/timePositionNaut miles runAvg speedWind from/ knotsBaromVisibWave heightAir tempDewpointWater temp
2015-May-27 06:33N 59°16' E 005°30'2 0.2
2015-May-26 17:27N 59°14' E 005°31'5 5.2
2015-May-26 16:34N 59°09' E 005°33'7 6.6
2015-May-26 15:34N 59°05' E 005°23'7 7.3
2015-May-26 14:34N 59°00' E 005°12'8 7.8
2015-May-26 13:34N 58°53' E 005°07'8 7.5
2015-May-26 12:34N 58°46' E 005°06'268 8.5
2015-May-25 05:10N 54°18' E 005°12'6 9.0
2015-May-25 04:32N 54°12' E 005°10'9 8.8
2015-May-25 03:33N 54°04' E 005°06'9 8.7
2015-May-25 02:33N 53°56' E 005°02'9 8.5
2015-May-25 01:29N 53°47' E 004°56'8 8.4
2015-May-25 00:31N 53°40' E 004°52'9 8.9
2015-May-24 23:34N 53°32' E 004°46'10 9.6
2015-May-24 22:33N 53°23' E 004°40'1310.2
2015-May-24 21:19N 53°11' E 004°32'911.4
2015-May-24 20:30N 53°03' E 004°25'1111.6
2015-May-24 19:34N 52°53' E 004°16'1111.2
2015-May-24 18:33N 52°44' E 004°06'1110.9
2015-May-24 17:33N 52°36' E 003°54'1010.3
2015-May-24 16:33N 52°29' E 003°42'9 9.5
2015-May-24 15:34N 52°20' E 003°37'9 9.5
2015-May-24 14:34N 52°11' E 003°43'2 1.9
2015-May-24 13:32N 52°09' E 003°44'0 0.0
2015-May-24 12:26N 52°09' E 003°44'0 0.0
2015-May-24 11:32N 52°09' E 003°44'0 0.1
2015-May-24 10:32N 52°09' E 003°44'0 0.0
2015-May-24 09:26N 52°09' E 003°44'0 0.0
2015-May-24 08:29N 52°09' E 003°44'0 0.0
2015-May-24 07:32N 52°09' E 003°44'0 0.0
2015-May-24 06:29N 52°09' E 003°44'0 0.0
2015-May-24 05:17N 52°09' E 003°44'0 0.1
2015-May-24 04:32N 52°09' E 003°44'0 0.1
2015-May-24 03:32N 52°09' E 003°44'0 0.0
2015-May-24 02:29N 52°09' E 003°44'0 0.0
2015-May-24 01:29N 52°09' E 003°44'0 0.0
2015-May-24 00:29N 52°09' E 003°44'0 0.0
2015-May-23 23:32N 52°09' E 003°44'0 0.0
2015-May-23 22:29N 52°09' E 003°44'0 0.0
2015-May-23 21:32N 52°09' E 003°44'0 0.0
2015-May-23 20:32N 52°09' E 003°44'0 0.1
2015-May-23 19:29N 52°09' E 003°44'0 0.0
2015-May-23 18:32N 52°09' E 003°44'0 0.1
2015-May-23 17:23N 52°09' E 003°44'0 0.1
2015-May-23 16:20N 52°09' E 003°44'0 0.0
2015-May-23 15:20N 52°09' E 003°44'0 0.0
2015-May-23 14:26N 52°09' E 003°44'0 0.0
2015-May-23 13:23N 52°09' E 003°44'0 0.0
2015-May-23 12:32N 52°09' E 003°44'0 0.0
2015-May-23 11:29N 52°09' E 003°44'0 0.0
2015-May-23 10:23N 52°09' E 003°44'0 0.0
2015-May-23 09:32N 52°09' E 003°44'0 0.0
2015-May-23 08:11N 52°09' E 003°44'0 0.1
2015-May-23 07:11N 52°09' E 003°44'0 0.1
2015-May-23 06:32N 52°09' E 003°44'0 0.1
2015-May-23 04:33N 52°09' E 003°44'1010.1
2015-May-23 03:33N 52°02' E 003°56'1111.2
2015-May-23 02:33N 51°56' E 004°12'3 3.3
2015-May-23 01:33N 51°53' E 004°14'1 0.8
2015-May-23 00:33N 51°53' E 004°15'0 0.0
2015-May-22 23:33N 51°53' E 004°15'0 0.0
2015-May-22 22:33N 51°53' E 004°15'0 0.0
2015-May-22 21:33N 51°53' E 004°15'0 0.0
2015-May-22 20:33N 51°53' E 004°15'0 0.0
2015-May-22 19:33N 51°53' E 004°15'0 0.0
2015-May-22 18:33N 51°53' E 004°15'0 0.0
2015-May-22 17:33N 51°53' E 004°15'0 0.0
2015-May-22 16:18N 51°53' E 004°15'0 0.0
2015-May-22 15:33N 51°53' E 004°15'0 0.0
2015-May-22 14:33N 51°53' E 004°15'0 0.0
2015-May-22 13:33N 51°53' E 004°15'0 0.0
2015-May-22 12:33N 51°53' E 004°15'0 0.0
2015-May-22 11:30N 51°53' E 004°15'0 0.0
2015-May-22 10:33N 51°53' E 004°15'0 0.0
2015-May-22 09:33N 51°53' E 004°15'0 0.0
2015-May-22 08:33N 51°53' E 004°15'0 0.0
2015-May-22 07:33N 51°53' E 004°15'0 0.0
2015-May-22 06:21N 51°53' E 004°15'0 0.0
2015-May-22 05:33N 51°53' E 004°15'0 0.0
2015-May-22 04:33N 51°53' E 004°15'0 0.0
2015-May-22 03:33N 51°53' E 004°15'0 0.0
2015-May-22 02:21N 51°53' E 004°15'0 0.0
2015-May-22 01:12N 51°53' E 004°15'0 0.0
2015-May-22 00:33N 51°53' E 004°15'0 0.0
2015-May-21 23:33N 51°53' E 004°15'0 0.0
2015-May-21 22:33N 51°53' E 004°15'0 0.0
2015-May-21 21:30N 51°53' E 004°15'0 0.0
2015-May-21 20:33N 51°53' E 004°15'0 0.0
2015-May-21 19:27N 51°53' E 004°15'0 0.0
2015-May-21 18:24N 51°53' E 004°15'0 0.0
2015-May-21 17:27N 51°53' E 004°15'0 0.0
2015-May-21 16:21N 51°53' E 004°15'0 0.0
2015-May-21 15:30N 51°53' E 004°15'0 0.0
2015-May-21 14:27N 51°53' E 004°15'0 0.0
2015-May-21 13:33N 51°53' E 004°15'0 0.0
2015-May-21 12:33N 51°53' E 004°15'0 0.0
2015-May-21 11:33N 51°53' E 004°15'0 0.0
2015-May-21 10:18N 51°53' E 004°15'0 0.0
2015-May-21 09:33N 51°53' E 004°15'0 0.0
2015-May-21 07:33N 51°53' E 004°15'0 0.0
2015-May-21 06:30N 51°53' E 004°15'1 1.2
2015-May-21 05:34N 51°53' E 004°14'4 4.4
2015-May-21 04:34N 51°57' E 004°09'9 8.7
2015-May-21 03:33N 51°59' E 003°56'4 4.4
2015-May-21 02:34N 52°02' E 003°50'8 7.9
2015-May-21 01:31N 52°08' E 003°41'0 0.1
2015-May-21 00:28N 52°08' E 003°41'0 0.0
2015-May-20 23:31N 52°08' E 003°41'0 0.0
2015-May-20 22:16N 52°08' E 003°41'0 0.0
2015-May-20 21:22N 52°08' E 003°41'0 0.1
2015-May-20 20:31N 52°08' E 003°41'0 0.0
2015-May-20 13:13N 52°08' E 003°41'0 0.0
2015-May-20 10:28N 52°08' E 003°41'0 0.0
2015-May-20 09:28N 52°08' E 003°41'0 0.1
2015-May-20 07:22N 52°08' E 003°41'0 0.0
2015-May-20 05:28N 52°08' E 003°41'0 0.0
2015-May-19 22:31N 52°08' E 003°41'0 0.0
2015-May-19 21:04N 52°08' E 003°41'0 0.0
2015-May-19 11:28N 52°08' E 003°41'0 0.2
2015-May-19 10:25N 52°08' E 003°41'0 0.2
2015-May-19 08:33N 52°08' E 003°41'7 6.8
2015-May-19 07:33N 52°14' E 003°46'9 9.0
2015-May-19 06:34N 52°23' E 003°49'27 8.1
2015-May-19 03:15N 52°49' E 003°57'44 9.2
2015-May-18 22:29N 53°27' E 004°34'9 8.9
2015-May-18 21:28N 53°35' E 004°39'23 7.3
2015-May-18 18:19N 53°57' E 004°50'5 5.8
2015-May-18 17:27N 54°02' E 004°55'6 6.7
2015-May-18 16:32N 54°07' E 004°59'9 9.0
2015-May-18 15:32N 54°16' E 005°02'27010.4
2015-May-17 13:32N 58°46' E 005°06'1010.4
2015-May-17 12:34N 58°56' E 005°08'1010.0
2015-May-17 11:33N 59°05' E 005°18'10 9.6
2015-May-17 10:33N 59°12' E 005°31'  

Dump ship's entire track history